createdAt,value
2022-10-24T00:01:56.306Z,25.74
2022-10-24T00:04:26.625Z,25.76
2022-10-24T00:06:54.550Z,25.75
2022-10-24T00:09:27.093Z,25.64
2022-10-24T00:11:54.205Z,25.68
2022-10-24T00:14:21.527Z,25.78
2022-10-24T00:16:57.880Z,25.79
2022-10-24T00:19:27.559Z,25.70
2022-10-24T00:21:54.673Z,25.75
2022-10-24T00:24:26.565Z,25.79
2022-10-24T00:26:59.359Z,25.65
2022-10-24T00:29:29.423Z,25.66
2022-10-24T00:31:57.671Z,25.71
2022-10-24T00:34:25.730Z,25.67
2022-10-24T00:36:58.296Z,25.66
2022-10-24T00:39:25.497Z,25.62
2022-10-24T00:41:58.913Z,25.59
2022-10-24T00:44:33.894Z,25.63
2022-10-24T00:47:10.628Z,25.60
2022-10-24T00:50:00.893Z,25.59
2022-10-24T00:52:35.852Z,25.60
2022-10-24T00:55:06.556Z,25.59
2022-10-24T00:57:36.616Z,25.65
2022-10-24T01:00:09.779Z,25.60
2022-10-24T01:02:39.781Z,25.61
2022-10-24T01:05:08.539Z,25.66
2022-10-24T01:07:35.719Z,25.66
2022-10-24T01:10:37.337Z,25.66
2022-10-24T01:13:10.472Z,25.71
2022-10-24T01:15:50.155Z,25.82
2022-10-24T01:18:25.786Z,25.81
2022-10-24T01:21:06.945Z,25.81
2022-10-24T01:23:46.261Z,25.88
2022-10-24T01:26:33.240Z,25.89
2022-10-24T01:29:16.985Z,25.86
2022-10-24T01:31:56.583Z,25.98
2022-10-24T01:34:30.558Z,25.88
2022-10-24T01:37:04.278Z,25.83
2022-10-24T01:39:34.463Z,25.80
2022-10-24T01:42:09.152Z,25.77
2022-10-24T01:44:40.916Z,25.68
2022-10-24T01:47:15.669Z,25.63
2022-10-24T01:49:45.194Z,25.66
2022-10-24T01:52:17.044Z,25.73
2022-10-24T01:54:45.051Z,25.75
2022-10-24T01:57:16.190Z,25.64
2022-10-24T01:59:49.115Z,25.66
2022-10-24T02:02:23.983Z,25.62
2022-10-24T02:05:01.363Z,25.64
2022-10-24T02:07:29.038Z,25.55
2022-10-24T02:10:00.858Z,25.55
2022-10-24T02:12:31.937Z,25.58
2022-10-24T02:15:03.690Z,25.52
2022-10-24T02:17:36.841Z,25.55
2022-10-24T02:20:04.310Z,25.53
2022-10-24T02:22:37.581Z,25.59
2022-10-24T02:25:24.952Z,25.56
2022-10-24T02:28:10.003Z,25.55
2022-10-24T02:30:42.880Z,25.60
2022-10-24T02:33:13.435Z,25.63
2022-10-24T02:35:41.062Z,25.57
2022-10-24T02:38:21.477Z,25.47
2022-10-24T02:40:50.592Z,25.60
2022-10-24T02:43:19.120Z,25.55
2022-10-24T02:45:49.111Z,25.59
2022-10-24T02:48:18.525Z,25.54
2022-10-24T02:50:45.993Z,25.52
2022-10-24T02:53:22.019Z,25.59
2022-10-24T02:55:51.909Z,25.60
2022-10-24T02:58:22.749Z,25.59
2022-10-24T03:00:49.933Z,25.62
2022-10-24T03:03:22.449Z,25.83
2022-10-24T03:05:51.877Z,25.56
2022-10-24T03:08:21.802Z,25.56
2022-10-24T03:10:49.147Z,25.64
2022-10-24T03:13:19.176Z,25.64
2022-10-24T03:18:14.933Z,25.60
2022-10-24T03:20:44.310Z,25.77
2022-10-24T03:23:14.306Z,25.68
2022-10-24T03:25:46.675Z,25.66
2022-10-24T03:28:16.903Z,25.61
2022-10-24T03:30:50.222Z,25.59
2022-10-24T03:33:19.864Z,25.70
2022-10-24T03:35:49.862Z,25.73
2022-10-24T03:38:18.051Z,25.72
2022-10-24T03:40:48.164Z,25.74
2022-10-24T03:43:18.357Z,25.77
2022-10-24T03:45:45.520Z,25.74
2022-10-24T03:48:12.683Z,25.80
2022-10-24T03:50:40.878Z,25.81
2022-10-24T03:53:07.963Z,25.82
2022-10-24T03:55:35.216Z,25.86
2022-10-24T03:58:08.573Z,25.73
2022-10-24T04:00:40.483Z,25.86
2022-10-24T04:03:07.943Z,25.74
2022-10-24T04:05:41.897Z,25.68
2022-10-24T04:08:09.213Z,25.83
2022-10-24T04:10:39.521Z,25.89
2022-10-24T04:13:11.526Z,25.79
2022-10-24T04:15:39.904Z,25.80
2022-10-24T04:18:10.155Z,25.73
2022-10-24T04:20:40.427Z,25.69
2022-10-24T04:23:07.624Z,25.64
2022-10-24T04:25:35.328Z,25.59
2022-10-24T04:28:08.931Z,25.68
2022-10-24T04:33:16.520Z,25.68
2022-10-24T04:35:50.047Z,25.61
2022-10-24T04:38:17.312Z,25.78
2022-10-24T04:40:45.751Z,25.67
2022-10-24T04:43:15.539Z,25.64
2022-10-24T04:45:48.528Z,25.66
2022-10-24T04:48:19.002Z,25.67
2022-10-24T04:50:46.483Z,25.70
2022-10-24T04:53:13.914Z,25.69
2022-10-24T04:55:41.081Z,25.63
2022-10-24T04:58:10.975Z,25.58
2022-10-24T05:00:43.432Z,25.57
2022-10-24T05:03:13.523Z,25.61
2022-10-24T05:05:41.013Z,25.79
2022-10-24T05:08:13.418Z,25.78
2022-10-24T05:10:46.340Z,25.67
2022-10-24T05:13:16.957Z,25.68
2022-10-24T05:15:47.092Z,25.67
2022-10-24T05:18:17.255Z,25.61
2022-10-24T05:20:49.829Z,25.62
2022-10-24T05:23:16.961Z,25.60
2022-10-24T05:25:46.354Z,25.56
2022-10-24T05:28:16.475Z,25.53
2022-10-24T05:30:45.359Z,25.57
2022-10-24T05:33:15.256Z,25.59
2022-10-24T05:35:46.112Z,25.63
2022-10-24T05:38:23.131Z,25.58
2022-10-24T05:40:51.697Z,25.56
2022-10-24T05:43:24.886Z,25.56
2022-10-24T05:45:56.112Z,25.56
2022-10-24T05:48:31.482Z,25.56
2022-10-24T05:51:04.143Z,25.53
2022-10-24T05:53:56.207Z,25.54
2022-10-24T05:56:29.654Z,25.58
2022-10-24T05:59:01.066Z,25.55
2022-10-24T06:01:30.144Z,25.59
2022-10-24T06:04:06.829Z,25.51
2022-10-24T06:06:44.757Z,25.71
2022-10-24T06:09:16.065Z,25.81
2022-10-24T06:11:51.818Z,25.65
2022-10-24T06:14:24.473Z,25.66
2022-10-24T06:16:54.873Z,25.59
2022-10-24T06:19:31.362Z,25.59
2022-10-24T06:21:59.215Z,25.66
2022-10-24T06:24:30.457Z,25.64
2022-10-24T06:27:03.247Z,25.58
2022-10-24T06:29:31.123Z,25.56
2022-10-24T06:32:01.919Z,25.57
2022-10-24T06:34:37.491Z,25.73
2022-10-24T06:37:09.951Z,25.68
2022-10-24T06:39:44.373Z,25.77
2022-10-24T06:42:17.118Z,25.67
2022-10-24T06:44:53.075Z,25.67
2022-10-24T06:47:20.487Z,25.77
2022-10-24T06:49:51.915Z,25.96
2022-10-24T06:52:19.331Z,26.29
2022-10-24T06:54:49.548Z,27.03
2022-10-24T06:57:22.183Z,26.84
2022-10-24T06:59:50.714Z,26.84
2022-10-24T07:02:25.468Z,26.85
2022-10-24T07:04:53.423Z,27.21
2022-10-24T07:07:32.731Z,27.60
2022-10-24T07:10:12.419Z,28.07
2022-10-24T07:12:44.443Z,28.12
2022-10-24T07:15:17.043Z,28.09
2022-10-24T07:17:45.871Z,28.32
2022-10-24T07:20:14.964Z,28.41
2022-10-24T07:22:45.854Z,28.49
2022-10-24T07:25:25.308Z,28.40
2022-10-24T07:28:10.522Z,27.98
2022-10-24T07:30:46.029Z,28.05
2022-10-24T07:33:21.588Z,27.60
2022-10-24T07:35:51.864Z,27.71
2022-10-24T07:38:22.015Z,27.48
2022-10-24T07:40:57.245Z,27.30
2022-10-24T07:43:24.975Z,27.09
2022-10-24T07:48:36.019Z,26.91
2022-10-24T07:51:10.021Z,26.74
2022-10-24T07:53:41.627Z,26.72
2022-10-24T07:56:13.426Z,26.67
2022-10-24T07:58:49.643Z,26.56
2022-10-24T08:01:25.639Z,26.62
2022-10-24T08:04:01.924Z,26.37
2022-10-24T08:06:43.695Z,26.47
2022-10-24T08:09:20.590Z,26.81
2022-10-24T08:11:57.166Z,26.88
2022-10-24T08:14:27.684Z,27.09
2022-10-24T08:16:58.738Z,27.09
2022-10-24T08:19:28.615Z,26.98
2022-10-24T08:22:05.716Z,27.06
2022-10-24T08:24:43.889Z,26.94
2022-10-24T08:27:13.624Z,26.81
2022-10-24T08:29:45.345Z,26.97
2022-10-24T08:32:18.601Z,26.89
2022-10-24T08:34:46.091Z,27.01
2022-10-24T08:37:15.676Z,27.05
2022-10-24T08:39:43.383Z,26.89
2022-10-24T08:42:18.688Z,26.91
2022-10-24T08:44:56.666Z,26.90
2022-10-24T08:50:21.218Z,26.88
2022-10-24T08:52:58.294Z,26.60
2022-10-24T08:55:48.891Z,26.55
2022-10-24T08:58:46.151Z,26.57
2022-10-24T09:01:24.440Z,26.74
2022-10-24T09:03:58.561Z,26.69
2022-10-24T09:06:30.349Z,26.61
2022-10-24T09:09:01.995Z,26.58
2022-10-24T09:11:43.486Z,26.69
2022-10-24T09:14:19.506Z,26.57
2022-10-24T09:16:54.618Z,26.77
2022-10-24T09:19:29.289Z,27.15
2022-10-24T09:21:58.394Z,27.21
2022-10-24T09:24:47.763Z,27.31
2022-10-24T09:27:19.700Z,27.26
2022-10-24T09:29:52.988Z,26.96
2022-10-24T09:32:28.269Z,26.91
2022-10-24T09:34:58.657Z,27.16
2022-10-24T09:37:41.255Z,27.20
2022-10-24T09:40:30.164Z,27.36
2022-10-24T09:43:08.375Z,27.11
2022-10-24T09:45:44.199Z,27.14
2022-10-24T09:48:20.134Z,26.99
2022-10-24T09:50:52.499Z,26.97
2022-10-24T09:53:43.159Z,26.93
2022-10-24T09:56:16.435Z,26.75
2022-10-24T09:58:48.917Z,26.50
2022-10-24T10:01:17.705Z,26.71
2022-10-24T10:04:02.817Z,26.82
2022-10-24T10:06:36.561Z,26.95
2022-10-24T10:09:14.742Z,27.06
2022-10-24T10:12:00.701Z,27.14
2022-10-24T10:14:40.523Z,27.17
2022-10-24T10:17:19.090Z,27.32
2022-10-24T10:19:48.457Z,27.34
2022-10-24T10:22:27.769Z,27.43
2022-10-24T10:24:59.151Z,27.37
2022-10-24T10:27:41.953Z,27.40
2022-10-24T10:30:15.939Z,27.27
2022-10-24T10:32:57.026Z,27.36
2022-10-24T10:35:33.569Z,27.31
2022-10-24T10:38:19.701Z,27.50
2022-10-24T10:41:07.587Z,27.47
2022-10-24T10:44:03.269Z,27.46
2022-10-24T10:46:30.749Z,27.43
2022-10-24T10:49:04.498Z,27.40
2022-10-24T10:51:40.277Z,27.37
2022-10-24T10:54:17.171Z,27.38
2022-10-24T10:56:47.798Z,27.28
2022-10-24T10:59:29.341Z,27.41
2022-10-24T11:02:20.899Z,27.29
2022-10-24T11:04:54.648Z,27.20
2022-10-24T11:07:33.482Z,27.25
2022-10-24T11:10:06.066Z,27.11
2022-10-24T11:12:44.473Z,27.15
2022-10-24T11:15:29.142Z,27.08
2022-10-24T11:18:34.485Z,27.05
2022-10-24T11:21:08.845Z,26.91
2022-10-24T11:26:27.084Z,26.98
2022-10-24T11:28:57.565Z,26.89
2022-10-24T11:31:38.299Z,26.92
2022-10-24T11:34:21.502Z,26.78
2022-10-24T11:37:03.250Z,26.98
2022-10-24T11:39:41.733Z,26.77
2022-10-24T11:42:22.860Z,26.79
2022-10-24T11:45:03.737Z,26.89
2022-10-24T11:47:40.767Z,27.03
2022-10-24T11:50:15.716Z,26.85
2022-10-24T11:52:45.322Z,26.81
2022-10-24T11:55:23.443Z,26.90
2022-10-24T11:57:57.888Z,26.60
2022-10-24T12:00:35.140Z,26.68
2022-10-24T12:03:21.867Z,26.63
2022-10-24T12:06:01.191Z,26.43
2022-10-24T12:08:50.736Z,26.40
2022-10-24T12:11:44.432Z,26.48
2022-10-24T12:14:27.127Z,26.64
2022-10-24T12:17:17.004Z,26.44
2022-10-24T12:19:56.429Z,26.34
2022-10-24T12:22:35.431Z,26.54
2022-10-24T12:25:16.227Z,26.43
2022-10-24T12:27:59.150Z,26.38
2022-10-24T12:30:29.017Z,26.57
2022-10-24T12:33:02.073Z,26.47
2022-10-24T12:35:36.292Z,26.49
2022-10-24T12:38:15.346Z,26.68
2022-10-24T12:40:48.922Z,27.12
2022-10-24T12:43:29.394Z,27.34
2022-10-24T12:46:12.911Z,26.94
2022-10-24T12:48:49.341Z,26.81
2022-10-24T12:51:29.108Z,26.85
2022-10-24T12:54:13.445Z,26.62
2022-10-24T12:56:50.044Z,26.84
2022-10-24T12:59:25.422Z,26.81
2022-10-24T13:02:19.074Z,26.89
2022-10-24T13:04:46.769Z,26.86
2022-10-24T13:07:23.899Z,26.87
2022-10-24T13:10:11.311Z,26.99
2022-10-24T13:12:41.629Z,26.89
2022-10-24T13:15:24.262Z,26.73
2022-10-24T13:18:04.806Z,26.85
2022-10-24T13:20:40.051Z,26.79
2022-10-24T13:23:27.135Z,26.80
2022-10-24T13:25:59.100Z,26.95
2022-10-24T13:28:31.933Z,26.76
2022-10-24T13:31:03.380Z,26.90
2022-10-24T13:33:33.814Z,26.67
2022-10-24T13:36:28.193Z,26.61
2022-10-24T13:39:05.703Z,26.61
2022-10-24T13:41:44.221Z,26.95
2022-10-24T13:44:36.658Z,27.00
2022-10-24T13:47:17.759Z,27.02
2022-10-24T13:50:08.952Z,27.29
2022-10-24T13:52:44.558Z,27.30
2022-10-24T13:55:33.303Z,27.07
2022-10-24T13:58:00.840Z,26.75
2022-10-24T14:00:44.836Z,26.65
2022-10-24T14:03:24.463Z,26.88
2022-10-24T14:06:01.890Z,26.61
2022-10-24T14:08:36.795Z,26.65
2022-10-24T14:11:16.043Z,26.71
2022-10-24T14:14:04.298Z,26.76
2022-10-24T14:16:40.301Z,27.31
2022-10-24T14:19:31.987Z,27.33
2022-10-24T14:22:15.093Z,27.05
2022-10-24T14:24:50.452Z,26.85
2022-10-24T14:27:24.241Z,26.97
2022-10-24T14:29:58.945Z,27.31
2022-10-24T14:32:35.910Z,27.41
2022-10-24T14:35:11.992Z,27.41
2022-10-24T14:37:49.176Z,27.30
2022-10-24T14:40:26.775Z,27.01
2022-10-24T14:42:55.140Z,26.89
2022-10-24T14:45:27.045Z,26.76
2022-10-24T14:48:00.805Z,26.76
2022-10-24T14:50:45.762Z,26.85
2022-10-24T14:53:31.285Z,26.57
2022-10-24T14:56:03.730Z,26.53
2022-10-24T14:58:37.965Z,26.74
2022-10-24T15:01:26.164Z,26.80
2022-10-24T15:03:56.555Z,26.81
2022-10-24T15:06:28.363Z,26.64
2022-10-24T15:09:06.576Z,26.67
2022-10-24T15:11:46.904Z,26.69
2022-10-24T15:14:36.244Z,26.86
2022-10-24T15:17:08.616Z,26.88
2022-10-24T15:19:39.315Z,26.66
2022-10-24T15:22:32.098Z,26.70
2022-10-24T15:25:07.559Z,26.65
2022-10-24T15:27:39.686Z,26.57
2022-10-24T15:30:18.329Z,26.37
2022-10-24T15:32:49.100Z,26.28
2022-10-24T15:35:21.751Z,26.36
2022-10-24T15:38:01.558Z,26.30
2022-10-24T15:40:34.387Z,25.95
2022-10-24T15:43:06.905Z,25.93
2022-10-24T15:45:39.836Z,26.02
2022-10-24T15:48:10.397Z,25.89
2022-10-24T15:50:45.095Z,25.76
2022-10-24T15:53:28.930Z,25.99
2022-10-24T15:56:01.783Z,26.30
2022-10-24T15:58:33.117Z,26.40
2022-10-24T16:01:00.562Z,26.58
2022-10-24T16:03:32.445Z,26.68
2022-10-24T16:06:00.035Z,26.80
2022-10-24T16:08:28.142Z,26.87
2022-10-24T16:10:58.392Z,26.96
2022-10-24T16:13:25.903Z,26.98
2022-10-24T16:15:57.025Z,26.92
2022-10-24T16:18:26.732Z,26.93
2022-10-24T16:21:00.553Z,26.93
2022-10-24T16:23:33.988Z,26.98
2022-10-24T16:26:04.130Z,26.90
2022-10-24T16:28:32.578Z,26.88
2022-10-24T16:31:05.203Z,26.96
2022-10-24T16:33:37.996Z,26.96
2022-10-24T16:36:08.255Z,27.05
2022-10-24T16:38:40.847Z,26.92
2022-10-24T16:41:20.995Z,26.87
2022-10-24T16:43:56.551Z,26.89
2022-10-24T16:46:34.419Z,26.94
2022-10-24T16:51:47.374Z,26.85
2022-10-24T16:54:18.002Z,26.87
2022-10-24T16:56:53.336Z,26.95
2022-10-24T16:59:28.807Z,26.79
2022-10-24T17:02:01.372Z,26.78
2022-10-24T17:04:33.814Z,26.75
2022-10-24T17:07:12.428Z,26.81
2022-10-24T17:09:42.265Z,26.86
2022-10-24T17:12:12.459Z,26.73
2022-10-24T17:14:44.597Z,26.79
2022-10-24T17:17:17.253Z,26.84
2022-10-24T17:19:50.507Z,26.94
2022-10-24T17:22:30.345Z,26.91
2022-10-24T17:25:03.294Z,26.85
2022-10-24T17:27:35.364Z,26.90
2022-10-24T17:30:05.559Z,26.98
2022-10-24T17:32:35.961Z,26.87
2022-10-24T17:35:03.457Z,26.69
2022-10-24T17:37:52.190Z,26.86
2022-10-24T17:40:25.216Z,26.80
2022-10-24T17:42:56.115Z,26.75
2022-10-24T17:45:24.323Z,26.94
2022-10-24T17:47:57.128Z,26.74
2022-10-24T17:50:32.042Z,26.75
2022-10-24T17:53:01.285Z,26.66
2022-10-24T17:55:45.032Z,26.72
2022-10-24T17:58:15.501Z,26.62
2022-10-24T18:00:46.287Z,26.70
2022-10-24T18:03:14.175Z,26.57
2022-10-24T18:05:48.575Z,26.54
2022-10-24T18:08:18.026Z,26.63
2022-10-24T18:10:48.023Z,26.62
2022-10-24T18:13:15.140Z,26.49
2022-10-24T18:15:44.731Z,26.51
2022-10-24T18:18:13.003Z,26.50
2022-10-24T18:20:40.207Z,26.41
2022-10-24T18:23:12.009Z,26.60
2022-10-24T18:25:45.544Z,26.45
2022-10-24T18:28:13.654Z,26.51
2022-10-24T18:30:46.663Z,26.51
2022-10-24T18:33:16.300Z,26.51
2022-10-24T18:35:45.868Z,26.53
2022-10-24T18:38:19.063Z,26.57
2022-10-24T18:40:55.213Z,26.78
2022-10-24T18:43:23.012Z,26.61
2022-10-24T18:45:52.723Z,26.47
2022-10-24T18:48:22.381Z,26.50
2022-10-24T18:50:55.403Z,26.52
2022-10-24T18:53:28.039Z,26.55
2022-10-24T18:56:00.224Z,26.48
2022-10-24T18:58:33.657Z,26.42
2022-10-24T19:01:04.211Z,26.41
2022-10-24T19:03:39.954Z,26.38
2022-10-24T19:06:09.499Z,26.37
2022-10-24T19:08:42.874Z,26.43
2022-10-24T19:11:15.126Z,26.46
2022-10-24T19:13:43.223Z,26.38
2022-10-24T19:16:18.184Z,26.43
2022-10-24T19:18:56.585Z,26.32
2022-10-24T19:21:24.509Z,26.30
2022-10-24T19:23:55.080Z,26.38
2022-10-24T19:26:25.427Z,26.29
2022-10-24T19:29:01.181Z,26.33
2022-10-24T19:31:33.206Z,26.48
2022-10-24T19:34:05.864Z,26.40
2022-10-24T19:36:35.750Z,26.42
2022-10-24T19:39:05.639Z,26.37
2022-10-24T19:41:38.449Z,26.42
2022-10-24T19:44:05.739Z,26.36
2022-10-24T19:46:33.085Z,26.33
2022-10-24T19:49:08.780Z,26.30
2022-10-24T19:51:41.344Z,26.26
2022-10-24T19:54:14.121Z,26.27
2022-10-24T19:56:46.265Z,26.26
2022-10-24T19:59:16.843Z,26.29
2022-10-24T20:01:47.674Z,26.27
2022-10-24T20:04:17.668Z,26.24
2022-10-24T20:06:48.102Z,26.21
2022-10-24T20:09:18.241Z,26.21
2022-10-24T20:11:45.460Z,26.17
2022-10-24T20:14:15.092Z,26.21
2022-10-24T20:16:44.210Z,26.16
2022-10-24T20:19:14.312Z,26.14
2022-10-24T20:21:44.559Z,26.20
2022-10-24T20:24:16.799Z,26.18
2022-10-24T20:26:46.368Z,26.14
2022-10-24T20:29:16.127Z,26.21
2022-10-24T20:31:46.518Z,26.25
2022-10-24T20:34:16.856Z,26.24
2022-10-24T20:36:49.697Z,26.27
2022-10-24T20:39:23.925Z,26.22
2022-10-24T20:41:56.119Z,26.20
2022-10-24T20:44:24.330Z,26.19
2022-10-24T20:46:55.523Z,26.16
2022-10-24T20:49:27.027Z,26.18
2022-10-24T20:51:59.467Z,26.18
2022-10-24T20:54:29.372Z,26.17
2022-10-24T20:57:02.254Z,26.16
2022-10-24T20:59:29.456Z,26.19
2022-10-24T21:01:57.176Z,26.16
2022-10-24T21:04:26.845Z,26.15
2022-10-24T21:06:54.110Z,26.29
2022-10-24T21:09:23.950Z,26.24
2022-10-24T21:11:57.271Z,26.33
2022-10-24T21:14:30.285Z,26.39
2022-10-24T21:16:58.619Z,26.36
2022-10-24T21:19:31.317Z,26.36
2022-10-24T21:22:01.355Z,26.30
2022-10-24T21:24:33.377Z,26.28
2022-10-24T21:27:05.374Z,26.23
2022-10-24T21:29:35.371Z,26.22
2022-10-24T21:32:06.336Z,26.22
2022-10-24T21:34:38.422Z,26.20
2022-10-24T21:37:05.648Z,26.19
2022-10-24T21:39:38.338Z,26.20
2022-10-24T21:42:11.257Z,26.18
2022-10-24T21:44:38.523Z,26.16
2022-10-24T21:47:10.371Z,26.11
2022-10-24T21:49:37.723Z,26.08
2022-10-24T21:52:07.877Z,26.11
2022-10-24T21:54:35.259Z,26.14
2022-10-24T21:57:05.516Z,26.09
2022-10-24T21:59:35.184Z,26.06
2022-10-24T22:02:04.700Z,26.04
2022-10-24T22:04:32.896Z,26.07
2022-10-24T22:07:03.153Z,26.18
2022-10-24T22:09:33.627Z,26.17
2022-10-24T22:12:22.920Z,26.20
2022-10-24T22:14:59.043Z,26.26
2022-10-24T22:17:36.343Z,26.30
2022-10-24T22:20:06.815Z,26.26
2022-10-24T22:22:39.002Z,26.33
2022-10-24T22:25:06.418Z,26.29
2022-10-24T22:27:33.561Z,26.22
2022-10-24T22:30:03.317Z,26.23
2022-10-24T22:32:39.018Z,26.19
2022-10-24T22:35:06.450Z,26.10
2022-10-24T22:37:39.192Z,26.16
2022-10-24T22:40:29.704Z,26.12
2022-10-24T22:43:02.374Z,26.09
2022-10-24T22:45:38.077Z,26.10
2022-10-24T22:48:08.892Z,26.09
2022-10-24T22:50:42.258Z,26.09
2022-10-24T22:53:12.325Z,26.07
2022-10-24T22:55:52.135Z,26.03
2022-10-24T22:58:24.962Z,26.03
2022-10-24T23:00:58.943Z,26.02
2022-10-24T23:03:50.378Z,26.05
2022-10-24T23:06:25.022Z,26.01
2022-10-24T23:09:04.672Z,25.98
2022-10-24T23:11:37.567Z,26.02
2022-10-24T23:14:04.816Z,25.95
2022-10-24T23:16:58.287Z,25.98
2022-10-24T23:19:29.333Z,26.01
2022-10-24T23:22:09.778Z,25.99
2022-10-24T23:24:39.658Z,25.95
2022-10-24T23:27:12.035Z,25.97
2022-10-24T23:29:46.582Z,26.00
2022-10-24T23:32:36.897Z,26.05
2022-10-24T23:35:07.023Z,26.02
2022-10-24T23:37:38.737Z,26.00
2022-10-24T23:40:23.403Z,25.98
2022-10-24T23:42:54.379Z,25.93
2022-10-24T23:45:23.033Z,25.97
2022-10-24T23:48:00.772Z,25.93
2022-10-24T23:50:48.395Z,25.92
2022-10-24T23:53:17.846Z,25.88
2022-10-24T23:55:50.631Z,25.90
2022-10-24T23:58:24.961Z,25.88
